Pensacola Naval Air Station/Forrest Sherman field
KNPA : now visible

Airfield :











YOU CAN JOIN US ON...

 
LOGIN :

Register | Disclaimer

   EN    FR    IT 

 









Legend :    VFR   Marginal VFR   IFR   Intensive IFR   Very Intensive IFR
Visi :
Ceiling :
>= 8 km
>= 3000ft
5 to 8 km
1000 to 3000 ft
1500m to 5 km
500 to 1000 ft
800 to 1500m
200 to 500 ft
< 800m
< 200 ft
Symbols :   Thunderstorms  Fog  Heavy snow  Heavy precipitations  Wind > 20 kt






- Airport Elevation : 28 ft


KNPA - Pensacola Naval Air Station/Forrest Sherman field

CURRENT METAR :
  • 222356Z 00000KT 10SM FEW040 FEW250 23/21 A3000 RMK SLP159 T02330211 10289 20233 53001

EXPIRED METARs :
  • 222256Z 23004KT 10SM FEW040 FEW250 26/22 A2998 RMK SLP152 T02560217
  • 222156Z 19005KT 10SM FEW040 FEW250 27/22 A2999 RMK AO2 SLP156 T02670222 $

TAF TAF KNPA
Valid from the 22 at 23:00 until the 23 at 23:00 UTC


2223/2323 23005KT 9999 FEW040 FEW250 QNH2996INS
FM230200 VRB04KT 9999 FEW250 QNH2998INS
FM230800 36006KT 9999 FEW015 FEW250 QNH3000INS
FM231800 12008KT 9999 FEW030 FEW250 QNH3005INS
FM232100 16008KT 9999 SCT040 SCT250 QNH3000INS AUTOMATED SENSOR METWATCH 2303 TIL 2312 T15/2311Z T29/2318Z FN20034
KZJX FIR / North America



MET'MAP, your aeronautical weather chart ! - Copyright ORBIFLY December 2007 - Disclaimer

ORBIFLY MET'MAP TEAM :

Programming & Development : Alexandra Zaïnal
Concept & original design : Baudouin d'Aumeries
Assistance for programming : Marc-Olivier Méhu
Technical & hardware support : Manuel Goepfert

Contact : metmap@orbifly.com




SOURCES & CREDITS :

   NOAA       Earth
Advisory